• Join FlightAware (Why Join?)
  • Login
  • US Flag 
01:40PM EDT


 

Airport Tracker/Info


-or-


 

Live Flight TrackerFlight Track Log ✈ BJS621 ✈ 07-May-2013 ✈ KMDW - KCHS

Flight Track Log - Related Links

Times and Time Zones

All times are in EDT time to prevent confusion due to time zone crossing. See the BJS621 flight status page for this flight to view local times or setup timezone preferences in your user account.

Time Position Orientation Groundspeed Altitude Reporting Facility
EDT Latitude Longitude Course Direction KTS MPH feet Rate Location/Type
01:59PM 41.7833 -87.7000 143° Southeast 204 235 3,200  Level Chicago TRACON
02:02PM 41.6197 -87.6753 174° South 291 335 10,600 2,880 Climbing Chicago Center
02:03PM 41.5350 -87.6286 158° South 324 373 12,900 2,100 Climbing Chicago Center
02:04PM 41.4356 -87.5769 159° South 375 432 15,000 1,500 Climbing Chicago Center
02:05PM 41.2651 -87.2312 143° Southeast  Level Estimated
02:05PM 41.3225 -87.5544 171° South 415 478 16,100  Level Chicago Center
02:06PM 41.2119 -87.5356 173° South 402 463 21,000 3,960 Climbing Chicago Center
02:07PM 41.1042 -87.5081 169° South 396 456 24,300 3,000 Climbing Chicago Center
02:08PM 40.9669 -87.4708 168° South 416 479 27,300 2,580 Climbing Chicago Center
02:09PM 40.8494 -87.4392 168° South 431 496 29,700 2,340 Climbing Chicago Center
02:10PM 40.7403 -87.3778 157° South 431 496 32,200 2,160 Climbing Chicago Center
02:11PM 40.6367 -87.3039 152° Southeast 427 491 34,200 1,860 Climbing Chicago Center
02:12PM 40.5322 -87.2322 152° Southeast 426 490 36,100 1,620 Climbing Chicago Center
02:13PM 40.4283 -87.1636 153° Southeast 420 483 37,600 1,260 Climbing Chicago Center
02:14PM 40.3039 -87.0786 152° Southeast 421 484 38,800 900 Climbing Chicago Center
02:15PM 40.1978 -87.0061 152° Southeast 430 495 39,500 540 Climbing Chicago Center
02:16PM 40.0867 -86.9311 153° Southeast 444 511 40,000 540 Climbing Chicago Center
02:16PM 40.0450 -86.9014 151° Southeast 449 517 40,300 1,140 Climbing Indianapolis Center
02:17PM 39.9331 -86.8250 152° Southeast 454 522 41,600 900 Climbing Indianapolis Center
02:18PM 39.8381 -86.7222 140° Southeast 441 507 42,200 540 Climbing Indianapolis Center
02:20PM 39.7433 -86.6175 140° Southeast 443 510 42,800 480 Climbing Indianapolis Center
02:21PM 39.6467 -86.5139 140° Southeast 446 513 43,300 480 Climbing Indianapolis Center
02:22PM 39.5497 -86.4083 140° Southeast 452 520 43,900 480 Climbing Indianapolis Center
02:23PM 39.4528 -86.3044 140° Southeast 450 518 44,400 480 Climbing Indianapolis Center
02:24PM 39.3561 -86.2008 140° Southeast 449 517 44,900 240 Climbing Indianapolis Center
02:25PM 39.2386 -86.0764 141° Southeast 452 520 45,000  Climbing Indianapolis Center
02:26PM 39.1414 -85.9728 140° Southeast 452 520 45,000  Level Indianapolis Center
02:27PM 39.0419 -85.8678 141° Southeast 457 526 45,000  Level Indianapolis Center
02:28PM 38.9419 -85.7628 141° Southeast 460 529 45,000  Level Indianapolis Center
02:29PM 38.8439 -85.6603 141° Southeast 454 522 45,000  Level Indianapolis Center
02:30PM 38.7447 -85.5567 141° Southeast 456 525 45,000  Level Indianapolis Center
02:31PM 38.6458 -85.4522 140° Southeast 458 527 45,000  Level Indianapolis Center
02:32PM 38.5450 -85.3483 141° Southeast 462 532 45,000  Level Indianapolis Center
02:33PM 38.4453 -85.2447 141° Southeast 460 529 45,000  Level Indianapolis Center
02:34PM 38.3328 -85.1311 142° Southeast 460 529 45,000  Level Indianapolis Center
02:35PM 38.2342 -85.0292 141° Southeast 455 524 45,000  Level Indianapolis Center
02:36PM 38.1169 -84.9094 141° Southeast 463 533 45,000  Level Indianapolis Center
02:37PM 38.0189 -84.8072 141° Southeast 457 526 45,000  Level Indianapolis Center
02:38PM 37.9189 -84.7067 142° Southeast 459 528 45,000  Level Indianapolis Center
02:39PM 37.8192 -84.6056 141° Southeast 459 528 45,000  Level Indianapolis Center
02:40PM 37.7183 -84.5056 142° Southeast 459 528 45,000  Level Indianapolis Center
02:41PM 37.6181 -84.4069 142° Southeast 458 527 45,000  Level Indianapolis Center
02:42PM 37.5025 -84.2867 140° Southeast 461 531 45,000  Level Indianapolis Center
02:43PM 37.4014 -84.1881 142° Southeast 460 529 45,000  Level Indianapolis Center
02:44PM 37.3019 -84.0878 141° Southeast 457 526 45,000  Level Indianapolis Center
02:45PM 37.1994 -83.9892 143° Southeast 462 532 45,000  Level Indianapolis Center
02:46PM 37.0986 -83.8889 142° Southeast 463 533 45,000  Level Indianapolis Center
02:47PM 36.9961 -83.7889 142° Southeast 466 536 45,000  Level Indianapolis Center
02:48PM 36.8769 -83.6731 142° Southeast 466 536 45,000  Level Indianapolis Center
02:49PM 36.7744 -83.5725 142° Southeast 468 539 45,000  Level Indianapolis Center
02:50PM 36.6722 -83.4733 142° Southeast 468 539 45,000  Level Indianapolis Center
02:51PM 36.5700 -83.3747 142° Southeast 468 539 45,000  Level Indianapolis Center
02:52PM 36.4856 -83.2950 143° Southeast 469 540 45,000  Level Atlanta Center
02:53PM 36.3828 -83.1956 142° Southeast 469 540 45,000  Level Atlanta Center
02:54PM 36.2800 -83.0986 143° Southeast 469 540 45,000  Level Atlanta Center
02:55PM 36.1769 -82.9994 142° Southeast 469 540 45,000  Level Atlanta Center
02:56PM 36.0758 -82.9033 142° Southeast 469 540 45,000  Level Atlanta Center
02:57PM 35.9728 -82.8044 142° Southeast 469 540 45,000  Level Atlanta Center
02:58PM 35.8694 -82.7089 143° Southeast 469 540 45,000  Level Atlanta Center
02:59PM 35.7683 -82.6106 142° Southeast 469 540 45,000  Level Atlanta Center
03:00PM 35.6544 -82.5053 143° Southeast 469 540 45,000 -300 Level Atlanta Center
03:01PM 35.5531 -82.4103 143° Southeast 469 540 44,400 -1,080 Descending Atlanta Center
03:02PM 35.4494 -82.3178 144° Southeast 464 534 42,900 -1,440 Descending Atlanta Center
03:03PM 35.3608 -82.2331 142° Southeast 464 534 41,600 -1,320 Descending Atlanta Center
03:04PM 35.2550 -82.1364 143° Southeast 471 542 40,300 -840 Descending Atlanta Center
03:05PM 35.1511 -82.0422 143° Southeast 471 542 40,000 -180 Descending Atlanta Center
03:06PM 35.0433 -81.9533 146° Southeast 466 536 40,000  Level Atlanta Center
03:07PM 34.9314 -81.8725 149° Southeast 466 536 40,000 -660 Level Atlanta Center
03:08PM 34.8214 -81.7894 148° Southeast 471 542 38,700 -1,440 Descending Atlanta Center
03:09PM 34.7072 -81.7092 150° Southeast 476 548 37,200 -2,580 Descending Atlanta Center
03:12PM 34.4444 -81.5128 148° Southeast 481 554 30,300 -3,060 Descending Jacksonville Center
03:13PM 34.3308 -81.4342 150° Southeast 475 547 27,300 -2,040 Descending Jacksonville Center
03:14PM 34.2150 -81.3508 149° Southeast 480 552 26,300 -1,260 Descending Jacksonville Center
03:15PM 34.1014 -81.2725 150° Southeast 480 552 24,800 -1,260 Descending Jacksonville Center
03:16PM 33.9878 -81.1944 150° Southeast 474 545 23,800 -1,260 Descending Jacksonville Center
03:17PM 33.8803 -81.1164 149° Southeast 469 540 22,300 -1,320 Descending Jacksonville Center
03:18PM 33.7706 -81.0364 149° Southeast 469 540 21,200 -660 Descending Jacksonville Center
03:19PM 33.6792 -80.9308 136° Southeast 458 527 21,000 -720 Descending Jacksonville Center
03:20PM 33.5919 -80.8256 135° Southeast 453 521 19,800 -1,800 Descending Jacksonville Center
03:21PM 33.5047 -80.7281 137° Southeast 442 509 17,500 -1,920 Descending Jacksonville Center
03:22PM 33.4197 -80.6306 136° Southeast 431 496 16,000 -2,220 Descending Jacksonville Center
03:23PM 33.3367 -80.5406 138° Southeast 426 490 13,100 -2,520 Descending Jacksonville Center
03:24PM 33.2539 -80.4658 143° Southeast 400 460 11,000 -1,860 Descending Jacksonville Center
03:25PM 33.1944 -80.4153 145° Southeast 346 398 9,400 -1,860 Descending Jacksonville Center
03:26PM 33.1189 -80.3975 169° South 289 333 7,300 -2,100 Descending Jacksonville Center
03:27PM 33.0475 -80.3797 168° South 279 321 5,300 -2,040 Descending Jacksonville Center
03:28PM 32.9803 -80.3544 162° South 266 306 3,300 -1,680 Descending Jacksonville Center
03:29PM 32.9308 -80.2889 132° Southeast 252 290 2,000 -900 Descending Jacksonville Center
03:30PM 32.8836 -80.2261 132° Southeast 252 290 1,600 -240 Descending Jacksonville Center
03:31PM 32.8383 -80.1606 129° Southeast 252 290 1,600  Level Jacksonville Center
03:33PM 32.8833 -80.0333 90° East  Level FlightAware Approximate
03:40PM 32.8986 -80.0405 90° East  Level Estimated
03:41PM 32.8986 -80.0405 90° East  Level Estimated
03:42PM 32.8986 -80.0405 90° East  Level Estimated